Time;durP1;ratioP1;P1;durP2;ratioP2;P2;SDS_P1;SDS_P2;PMS_P1;PMS_P2;Temp;Humidity;BMP_temperature;BMP_pressure;BME280_temperature;BME280_humidity;BME280_pressure;Samples;Min_cycle;Max_cycle;Signal;HPM_P1;HPM_P2
2022/05/20 00:00:17;;;;;;;4.07;2.87;;;20.70;99.90;;;;;;5096048;28;20905;-70
2022/05/20 00:02:44;;;;;;;2.90;2.70;;;20.60;99.90;;;;;;5095770;28;20457;-70
2022/05/20 00:05:10;;;;;;;4.03;2.70;;;20.60;99.90;;;;;;5095847;28;20478;-70
2022/05/20 00:07:39;;;;;;;3.00;2.77;;;20.50;99.90;;;;;;5096251;28;20590;-70
2022/05/20 00:10:07;;;;;;;3.13;2.83;;;20.50;99.90;;;;;;5095593;28;20491;-70
2022/05/20 00:12:36;;;;;;;3.10;2.80;;;20.50;99.90;;;;;;5095785;28;20465;-70
2022/05/20 00:15:03;;;;;;;3.67;3.10;;;20.50;99.90;;;;;;5096302;28;20507;-70
2022/05/20 00:17:30;;;;;;;3.50;3.00;;;20.40;99.90;;;;;;5096961;28;20937;-70
2022/05/20 00:19:57;;;;;;;3.80;3.10;;;20.40;99.90;;;;;;5095474;28;20446;-70
2022/05/20 00:22:23;;;;;;;3.80;2.77;;;20.30;99.90;;;;;;5095955;28;20457;-70
2022/05/20 00:27:35;;;;;;;4.57;2.73;;;20.30;99.90;;;;;;5096257;28;20758;-70
2022/05/20 00:30:02;;;;;;;6.77;2.90;;;20.20;99.90;;;;;;5095952;28;20824;-70
2022/05/20 00:32:29;;;;;;;4.63;3.30;;;20.20;99.90;;;;;;5096537;28;20518;-70
2022/05/20 00:34:56;;;;;;;4.43;3.37;;;20.10;99.90;;;;;;5094735;28;20481;-71
2022/05/20 00:37:22;;;;;;;4.10;3.10;;;20.10;99.90;;;;;;5094858;28;20461;-70
2022/05/20 00:39:49;;;;;;;3.63;3.33;;;20.10;99.90;;;;;;5096131;28;20449;-70
2022/05/20 00:42:18;;;;;;;5.27;3.27;;;20.00;99.90;;;;;;5095116;28;20782;-71
2022/05/20 00:44:47;;;;;;;6.60;3.30;;;20.00;99.90;;;;;;5095111;28;20457;-70
2022/05/20 00:47:15;;;;;;;3.60;2.97;;;20.00;99.90;;;;;;5095519;28;20457;-70
2022/05/20 00:49:46;;;;;;;4.83;3.00;;;19.90;99.90;;;;;;5095398;28;20472;-70
2022/05/20 00:52:16;;;;;;;3.37;3.07;;;19.90;99.90;;;;;;5095199;28;20450;-70
2022/05/20 00:54:45;;;;;;;3.53;3.27;;;19.90;99.90;;;;;;5095678;28;20496;-70
2022/05/20 00:57:16;;;;;;;6.07;3.60;;;19.80;99.90;;;;;;5095766;28;20461;-70
2022/05/20 00:59:47;;;;;;;3.50;3.20;;;19.80;99.90;;;;;;5095736;28;20493;-70
2022/05/20 01:02:20;;;;;;;2.70;2.50;;;19.70;99.90;;;;;;5096644;28;20452;-70
2022/05/20 01:04:48;;;;;;;3.03;2.83;;;19.70;99.90;;;;;;5097232;28;20754;-70
2022/05/20 01:07:18;;;;;;;5.17;3.03;;;19.60;99.90;;;;;;5097485;28;20477;-70
2022/05/20 01:09:45;;;;;;;5.37;3.00;;;19.60;99.90;;;;;;5098543;28;20548;-71
2022/05/20 01:12:12;;;;;;;3.27;2.97;;;19.60;99.90;;;;;;5098763;28;20453;-69
2022/05/20 01:14:38;;;;;;;4.30;3.10;;;19.60;99.90;;;;;;5098288;28;20477;-71
2022/05/20 01:17:07;;;;;;;2.90;2.70;;;19.50;99.90;;;;;;5099004;28;20453;-70
2022/05/20 01:19:37;;;;;;;3.10;2.80;;;19.50;99.90;;;;;;5099077;28;20453;-69
2022/05/20 01:22:07;;;;;;;4.60;3.20;;;19.50;99.90;;;;;;5096992;28;20457;-70
2022/05/20 01:24:35;;;;;;;4.73;3.67;;;19.40;99.90;;;;;;5097131;28;20540;-70
2022/05/20 01:27:02;;;;;;;3.47;3.17;;;19.30;99.90;;;;;;5096431;28;20491;-69
2022/05/20 01:29:29;;;;;;;4.37;3.27;;;19.30;99.90;;;;;;5096283;28;20467;-69
2022/05/20 01:31:55;;;;;;;4.33;3.93;;;19.30;99.90;;;;;;5099011;28;20809;-70
2022/05/20 01:34:22;;;;;;;3.63;3.33;;;19.30;99.90;;;;;;5101366;28;20453;-69
2022/05/20 01:36:49;;;;;;;3.87;3.47;;;19.30;99.90;;;;;;5101810;28;20449;-69
2022/05/20 01:39:16;;;;;;;5.37;4.30;;;19.20;99.90;;;;;;5102374;28;20908;-69
2022/05/20 01:41:52;;;;;;;4.60;4.20;;;19.20;99.90;;;;;;5100491;28;20449;-71
2022/05/20 01:44:25;;;;;;;5.00;4.60;;;19.10;99.90;;;;;;5101587;28;20452;-69
2022/05/20 01:46:59;;;;;;;5.17;4.53;;;19.00;99.90;;;;;;5103506;28;20445;-69
2022/05/20 01:49:35;;;;;;;5.83;5.10;;;19.00;99.90;;;;;;5101368;28;20440;-68
2022/05/20 01:52:09;;;;;;;6.47;5.30;;;18.90;99.90;;;;;;5099737;28;20460;-69
2022/05/20 01:54:48;;;;;;;6.80;6.10;;;18.90;99.90;;;;;;5099231;28;20455;-69
2022/05/20 01:57:23;;;;;;;7.10;5.60;;;18.90;99.90;;;;;;5099468;28;20441;-69
2022/05/20 01:59:54;;;;;;;6.10;5.60;;;18.90;99.90;;;;;;5100232;28;20536;-71
2022/05/20 02:02:26;;;;;;;7.10;5.87;;;18.90;99.90;;;;;;5100612;28;20445;-69
2022/05/20 02:04:59;;;;;;;6.17;5.53;;;18.80;99.90;;;;;;5100351;28;20434;-70
2022/05/20 02:07:30;;;;;;;6.57;6.07;;;18.80;99.90;;;;;;5099757;28;20961;-70
2022/05/20 02:10:02;;;;;;;6.70;6.10;;;18.70;99.90;;;;;;5102406;28;20499;-70
2022/05/20 02:12:37;;;;;;;7.27;6.63;;;18.60;99.90;;;;;;5101479;28;20831;-70
2022/05/20 02:15:09;;;;;;;7.00;6.30;;;18.70;99.90;;;;;;5100357;28;20556;-69
2022/05/20 02:17:38;;;;;;;8.63;7.70;;;18.60;99.90;;;;;;5100582;28;20522;-70
2022/05/20 02:20:12;;;;;;;8.77;7.97;;;18.60;99.90;;;;;;5101502;28;20766;-70
2022/05/20 02:22:43;;;;;;;10.07;7.23;;;18.60;99.90;;;;;;5101153;28;20442;-70
2022/05/20 02:25:13;;;;;;;9.90;7.60;;;18.70;99.90;;;;;;5100442;28;20430;-70
2022/05/20 02:27:45;;;;;;;9.47;8.50;;;18.70;99.90;;;;;;5100544;28;20456;-70
2022/05/20 02:30:15;;;;;;;9.33;8.43;;;18.70;99.90;;;;;;5101489;28;20437;-70
2022/05/20 02:32:47;;;;;;;8.87;8.10;;;18.60;99.90;;;;;;5102006;28;20840;-70
2022/05/20 02:35:13;;;;;;;8.07;7.37;;;18.60;99.90;;;;;;5102242;28;20461;-70
2022/05/20 02:37:40;;;;;;;9.30;8.40;;;18.70;99.90;;;;;;5101178;28;20522;-70
2022/05/20 02:40:11;;;;;;;8.57;7.23;;;18.80;99.90;;;;;;5102086;28;20468;-69
2022/05/20 02:42:37;;;;;;;7.83;7.23;;;18.80;99.90;;;;;;5102757;28;20468;-70
2022/05/20 02:45:07;;;;;;;7.90;7.20;;;18.90;99.90;;;;;;5101714;28;20453;-70
2022/05/20 02:47:35;;;;;;;8.00;7.30;;;19.00;99.90;;;;;;5102220;28;20735;-70
2022/05/20 02:50:04;;;;;;;8.70;7.90;;;19.00;99.90;;;;;;5100950;28;20487;-70
2022/05/20 02:52:32;;;;;;;9.10;8.30;;;19.00;99.90;;;;;;5100692;28;20468;-70
2022/05/20 02:54:59;;;;;;;9.83;8.93;;;18.90;99.90;;;;;;5101025;28;20457;-69
2022/05/20 02:57:26;;;;;;;9.13;8.33;;;18.80;99.90;;;;;;5100843;28;20482;-70
2022/05/20 03:05:22;;;;;;;8.80;8.00;;;18.80;99.90;;;;;;5100356;28;20441;-70
2022/05/20 03:07:48;;;;;;;9.20;8.30;;;18.80;99.90;;;;;;5101022;28;20488;-70
2022/05/20 03:10:15;;;;;;;9.17;8.37;;;18.70;99.90;;;;;;5102144;28;20506;-70
2022/05/20 03:12:43;;;;;;;9.07;7.63;;;18.70;99.90;;;;;;5103101;28;20453;-70
2022/05/20 03:15:12;;;;;;;8.90;8.10;;;18.70;99.90;;;;;;5102311;28;20477;-69
2022/05/20 03:17:40;;;;;;;9.13;7.33;;;18.70;99.90;;;;;;5103622;28;20464;-70
2022/05/20 03:20:09;;;;;;;10.40;8.33;;;18.70;99.90;;;;;;5102485;28;20533;-70
2022/05/20 03:22:37;;;;;;;9.20;8.30;;;18.70;99.90;;;;;;5101849;28;20572;-70
2022/05/20 03:25:05;;;;;;;10.43;8.90;;;18.70;99.90;;;;;;5102054;28;20461;-69
2022/05/20 03:27:31;;;;;;;9.13;8.23;;;18.70;99.90;;;;;;5101901;28;20510;-69
2022/05/20 03:29:58;;;;;;;8.60;7.80;;;18.60;99.90;;;;;;5101747;28;20457;-69
2022/05/20 03:32:25;;;;;;;9.50;8.17;;;18.60;99.90;;;;;;5101536;28;20454;-69
2022/05/20 03:34:56;;;;;;;8.87;8.03;;;18.60;99.90;;;;;;5100568;28;20453;-69
2022/05/20 03:37:23;;;;;;;7.90;7.20;;;18.60;99.90;;;;;;5100879;28;20908;-69
2022/05/20 03:39:50;;;;;;;8.97;8.07;;;18.60;99.90;;;;;;5100862;28;20457;-69
2022/05/20 03:42:17;;;;;;;9.40;7.83;;;18.60;99.90;;;;;;5103054;28;20797;-69
2022/05/20 03:44:43;;;;;;;9.80;8.90;;;18.60;99.90;;;;;;5103462;28;20523;-69
2022/05/20 03:47:10;;;;;;;9.93;8.17;;;18.70;99.90;;;;;;5102738;28;20468;-69
2022/05/20 03:49:37;;;;;;;10.03;9.07;;;18.70;99.90;;;;;;5102551;28;20450;-69
2022/05/20 03:52:05;;;;;;;9.27;8.47;;;18.70;99.90;;;;;;5101392;28;20763;-71
2022/05/20 03:54:33;;;;;;;8.83;7.93;;;18.70;99.90;;;;;;5100592;28;20454;-70
2022/05/20 03:57:00;;;;;;;9.20;8.40;;;18.60;99.90;;;;;;5100213;28;20477;-70
2022/05/20 03:59:27;;;;;;;9.87;8.87;;;18.60;99.90;;;;;;5101732;28;20456;-70
2022/05/20 04:02:00;;;;;;;8.77;7.97;;;18.60;99.90;;;;;;5102073;28;20481;-70
2022/05/20 04:04:30;;;;;;;10.47;9.47;;;18.60;99.90;;;;;;5101790;28;20445;-70
2022/05/20 04:06:57;;;;;;;8.90;8.03;;;18.60;99.90;;;;;;5100890;28;20484;-70
2022/05/20 04:09:25;;;;;;;9.73;8.90;;;18.60;99.90;;;;;;5101322;28;20915;-70
2022/05/20 04:11:55;;;;;;;9.30;8.43;;;18.60;99.90;;;;;;5101441;28;20468;-70
2022/05/20 04:14:22;;;;;;;8.93;8.10;;;18.70;99.90;;;;;;5102287;28;20453;-70
2022/05/20 04:16:54;;;;;;;9.00;8.20;;;18.70;99.90;;;;;;5101510;28;20481;-70
2022/05/20 04:19:21;;;;;;;10.50;9.40;;;18.70;99.90;;;;;;5099989;28;20446;-70
2022/05/20 04:21:48;;;;;;;10.27;9.37;;;18.70;99.90;;;;;;5099451;28;20468;-70
2022/05/20 04:24:15;;;;;;;9.80;8.80;;;18.70;99.90;;;;;;5099524;28;20453;-70
2022/05/20 04:26:43;;;;;;;9.30;8.50;;;18.70;99.90;;;;;;5101427;28;20449;-70
2022/05/20 04:29:09;;;;;;;10.83;9.73;;;18.70;99.90;;;;;;5100853;28;20457;-70
2022/05/20 04:31:37;;;;;;;10.50;9.60;;;18.70;99.90;;;;;;5100546;28;20502;-70
2022/05/20 04:34:04;;;;;;;12.70;9.93;;;18.70;99.90;;;;;;5100648;28;20826;-70
2022/05/20 04:36:31;;;;;;;10.20;9.37;;;18.70;99.90;;;;;;5099482;28;20488;-70
2022/05/20 04:38:57;;;;;;;11.33;10.33;;;18.70;99.90;;;;;;5099022;28;20449;-70
2022/05/20 04:46:59;;;;;;;10.73;9.63;;;18.70;99.90;;;;;;5101744;28;20483;-70
2022/05/20 04:49:27;;;;;;;11.00;10.10;;;18.70;99.90;;;;;;5100603;28;20434;-70
2022/05/20 04:51:54;;;;;;;10.93;9.53;;;18.70;99.90;;;;;;5101364;28;20544;-70
2022/05/20 04:57:07;;;;;;;12.10;10.90;;;18.80;99.90;;;;;;5100816;28;20461;-70
2022/05/20 04:59:39;;;;;;;10.47;9.50;;;18.80;99.90;;;;;;5101669;28;20468;-70
2022/05/20 05:02:07;;;;;;;11.20;10.10;;;18.80;99.90;;;;;;5101970;28;20449;-70
2022/05/20 05:04:34;;;;;;;12.07;10.70;;;18.90;99.90;;;;;;5101746;28;20826;-70
2022/05/20 05:07:01;;;;;;;11.37;10.17;;;19.00;99.90;;;;;;5105177;28;20783;-70
2022/05/20 05:09:27;;;;;;;11.30;10.30;;;19.00;99.90;;;;;;5105505;28;20442;-70
2022/05/20 05:11:54;;;;;;;12.43;10.93;;;19.10;99.90;;;;;;5104928;28;20457;-71
2022/05/20 05:14:21;;;;;;;11.60;10.40;;;19.10;99.90;;;;;;5104151;28;20453;-70
2022/05/20 05:16:49;;;;;;;11.67;10.57;;;19.10;99.90;;;;;;5104963;28;20535;-70
2022/05/20 05:19:15;;;;;;;12.00;11.00;;;19.20;99.90;;;;;;5104818;28;20449;-70
2022/05/20 05:21:42;;;;;;;12.47;11.27;;;19.20;99.90;;;;;;5104382;28;20453;-70
2022/05/20 05:24:09;;;;;;;12.40;11.20;;;19.20;99.90;;;;;;5105084;28;20453;-71
2022/05/20 05:26:37;;;;;;;12.17;11.10;;;19.20;99.90;;;;;;5103671;28;20555;-70
2022/05/20 05:29:04;;;;;;;11.57;10.47;;;19.20;99.90;;;;;;5103757;28;20932;-71
2022/05/20 05:31:31;;;;;;;13.43;11.93;;;19.20;99.90;;;;;;5103035;28;20518;-71
2022/05/20 05:33:59;;;;;;;13.10;11.33;;;19.30;99.90;;;;;;5103174;28;20904;-71
2022/05/20 05:36:26;;;;;;;13.90;12.50;;;19.30;99.90;;;;;;5102468;28;20534;-70
2022/05/20 05:38:53;;;;;;;12.70;11.40;;;19.30;99.90;;;;;;5102535;28;20529;-70
2022/05/20 05:41:20;;;;;;;14.67;12.80;;;19.20;99.90;;;;;;5104095;28;20787;-69
2022/05/20 05:43:47;;;;;;;12.60;11.50;;;19.20;99.90;;;;;;5103607;28;20525;-70
2022/05/20 05:46:14;;;;;;;17.73;11.27;;;19.20;99.90;;;;;;5104999;28;20499;-70
2022/05/20 05:48:41;;;;;;;15.00;12.30;;;19.20;99.90;;;;;;5103201;28;20457;-69
2022/05/20 05:51:09;;;;;;;13.63;12.33;;;19.20;99.90;;;;;;5103645;28;20510;-70
2022/05/20 05:53:36;;;;;;;13.17;11.87;;;19.20;99.90;;;;;;5103442;28;20457;-70
2022/05/20 05:56:05;;;;;;;14.63;13.13;;;19.20;99.90;;;;;;5104557;28;20481;-70
2022/05/20 05:58:33;;;;;;;13.90;12.57;;;19.20;99.90;;;;;;5104860;28;20464;-70
2022/05/20 06:01:00;;;;;;;13.17;12.00;;;19.30;99.90;;;;;;5103997;28;20461;-69
2022/05/20 06:03:26;;;;;;;13.47;12.27;;;19.30;99.90;;;;;;5105188;28;20457;-69
2022/05/20 06:05:53;;;;;;;13.60;12.20;;;19.30;99.90;;;;;;5103124;28;20465;-71
2022/05/20 06:08:21;;;;;;;12.90;11.80;;;19.30;99.90;;;;;;5102587;28;20507;-71
2022/05/20 06:10:48;;;;;;;14.37;12.60;;;19.30;99.90;;;;;;5102936;28;20620;-71
2022/05/20 06:13:22;;;;;;;13.67;12.37;;;19.30;99.90;;;;;;5101763;28;20457;-70
2022/05/20 06:15:49;;;;;;;13.77;12.07;;;19.30;99.90;;;;;;5102338;28;20441;-69
2022/05/20 06:18:16;;;;;;;14.67;13.17;;;19.30;99.90;;;;;;5101116;28;20464;-71
2022/05/20 06:20:43;;;;;;;13.13;11.93;;;19.30;99.90;;;;;;5101535;28;20453;-70
2022/05/20 06:23:09;;;;;;;13.00;11.80;;;19.30;99.90;;;;;;5102414;28;20465;-70
2022/05/20 06:25:38;;;;;;;13.10;11.30;;;19.30;99.90;;;;;;5100909;28;20457;-69
2022/05/20 06:28:07;;;;;;;12.40;11.20;;;19.30;99.90;;;;;;5101797;28;20731;-69
2022/05/20 06:30:34;;;;;;;12.23;10.70;;;19.30;99.90;;;;;;5101591;28;20457;-71
2022/05/20 06:33:03;;;;;;;11.17;10.10;;;19.30;99.90;;;;;;5101672;28;20461;-70
2022/05/20 06:40:59;;;;;;;12.40;11.30;;;19.30;99.90;;;;;;5100876;28;20424;-70
2022/05/20 06:43:27;;;;;;;11.43;10.33;;;19.30;99.90;;;;;;5101817;28;20505;-71
2022/05/20 06:45:57;;;;;;;11.47;10.37;;;19.30;99.90;;;;;;5100323;28;20540;-70
2022/05/20 06:48:23;;;;;;;11.30;9.93;;;19.40;99.90;;;;;;5101132;28;20434;-70
2022/05/20 06:50:50;;;;;;;11.53;10.43;;;19.50;99.90;;;;;;5101000;28;20457;-70
2022/05/20 06:53:17;;;;;;;9.47;8.57;;;19.50;99.90;;;;;;5101743;28;20453;-70
2022/05/20 06:55:43;;;;;;;11.97;9.87;;;19.60;99.90;;;;;;5100518;28;20507;-70
2022/05/20 06:58:12;;;;;;;15.30;9.80;;;19.70;99.90;;;;;;5100236;28;20973;-70
2022/05/20 07:00:38;;;;;;;11.40;10.30;;;19.80;99.90;;;;;;5101491;28;20458;-70
2022/05/20 07:03:05;;;;;;;10.60;9.80;;;19.80;99.90;;;;;;5100526;28;20453;-71
2022/05/20 07:05:34;;;;;;;10.67;9.00;;;19.80;99.90;;;;;;5100170;28;20468;-71
2022/05/20 07:08:00;;;;;;;10.50;9.50;;;19.80;99.90;;;;;;5063518;28;1031122;-70
2022/05/20 07:10:27;;;;;;;10.27;9.37;;;19.90;99.90;;;;;;5100924;28;20203;-72
2022/05/20 07:12:54;;;;;;;9.50;8.60;;;20.00;99.90;;;;;;5101750;28;20830;-71
2022/05/20 07:15:22;;;;;;;9.70;8.80;;;20.10;99.90;;;;;;5100685;28;20514;-71
2022/05/20 07:17:49;;;;;;;10.00;9.00;;;20.20;99.90;;;;;;5100731;28;20531;-71
2022/05/20 07:20:15;;;;;;;9.97;9.10;;;20.20;99.90;;;;;;5100365;28;20830;-71
2022/05/20 07:22:42;;;;;;;8.77;7.97;;;20.10;99.90;;;;;;5100843;28;20453;-71
2022/05/20 07:25:10;;;;;;;8.27;7.57;;;20.00;99.90;;;;;;5101120;28;20764;-71
2022/05/20 07:27:36;;;;;;;10.40;9.40;;;20.10;99.90;;;;;;5099074;28;20506;-71
2022/05/20 07:30:04;;;;;;;9.07;7.93;;;20.10;99.90;;;;;;5099574;28;20466;-71
2022/05/20 07:32:32;;;;;;;9.20;8.30;;;20.10;99.90;;;;;;5101515;28;20454;-70
2022/05/20 07:34:58;;;;;;;10.27;8.30;;;20.10;99.90;;;;;;5100432;28;20468;-70
2022/05/20 07:37:25;;;;;;;7.60;7.00;;;20.10;99.90;;;;;;5101092;28;20478;-70
2022/05/20 07:39:52;;;;;;;7.20;6.50;;;20.20;99.90;;;;;;5100629;28;20458;-70
2022/05/20 07:42:18;;;;;;;7.33;6.70;;;20.30;99.90;;;;;;5100643;28;20464;-71
2022/05/20 07:44:45;;;;;;;6.47;5.97;;;20.30;99.90;;;;;;5101181;28;20453;-71
2022/05/20 07:47:12;;;;;;;8.70;6.17;;;20.40;99.90;;;;;;5099369;28;20449;-70
2022/05/20 07:49:40;;;;;;;11.80;7.07;;;20.40;99.90;;;;;;5100337;28;20461;-70
2022/05/20 07:52:11;;;;;;;9.10;6.63;;;20.50;99.90;;;;;;5100401;28;20521;-71
2022/05/20 07:54:41;;;;;;;7.90;6.50;;;20.50;99.90;;;;;;5099472;28;20442;-70
2022/05/20 07:57:13;;;;;;;7.20;6.50;;;20.50;99.90;;;;;;5100323;28;20465;-70
2022/05/20 07:59:45;;;;;;;8.93;6.97;;;20.50;99.90;;;;;;5100483;28;20473;-70
2022/05/20 08:02:13;;;;;;;9.97;7.20;;;20.50;99.90;;;;;;5099489;28;20438;-70
2022/05/20 08:04:57;;;;;;;8.40;6.13;;;20.40;99.90;;;;;;5099881;28;20464;-71
2022/05/20 08:07:27;;;;;;;5.90;5.43;;;20.20;99.90;;;;;;5100089;28;20512;-72
2022/05/20 08:09:53;;;;;;;10.00;5.93;;;20.20;99.90;;;;;;5098585;28;20453;-71
2022/05/20 08:12:20;;;;;;;6.40;5.80;;;20.30;99.90;;;;;;5099118;28;20533;-71
2022/05/20 08:14:47;;;;;;;6.33;5.73;;;20.50;99.90;;;;;;5099162;28;20465;-70
2022/05/20 08:17:14;;;;;;;8.20;6.03;;;20.60;99.90;;;;;;5098721;28;20477;-70
2022/05/20 08:19:42;;;;;;;7.67;5.13;;;20.50;99.90;;;;;;5099968;28;20458;-70
2022/05/20 08:22:08;;;;;;;6.07;5.13;;;20.50;99.90;;;;;;5100365;28;20514;-71
2022/05/20 08:24:35;;;;;;;6.30;5.80;;;20.40;99.90;;;;;;5099718;28;20487;-70
2022/05/20 08:27:03;;;;;;;5.93;5.43;;;20.50;99.90;;;;;;5099257;28;20450;-71
2022/05/20 08:29:32;;;;;;;5.10;4.70;;;20.60;99.90;;;;;;5098351;28;20457;-71
2022/05/20 08:31:59;;;;;;;5.60;5.10;;;20.70;99.90;;;;;;5097749;28;20485;-71
2022/05/20 08:34:26;;;;;;;5.90;4.77;;;20.70;99.90;;;;;;5098838;28;20465;-71
2022/05/20 08:36:54;;;;;;;5.43;4.70;;;20.80;99.90;;;;;;5099878;28;20477;-70
2022/05/20 08:39:20;;;;;;;5.20;4.70;;;20.70;99.90;;;;;;5099764;28;20511;-71
2022/05/20 08:41:51;;;;;;;4.80;4.40;;;20.70;99.90;;;;;;5097655;28;20454;-71
2022/05/20 08:44:19;;;;;;;5.67;4.80;;;20.70;99.90;;;;;;5098699;28;20437;-70
2022/05/20 08:46:47;;;;;;;5.00;4.53;;;20.70;99.90;;;;;;5097431;28;20568;-70
2022/05/20 08:49:16;;;;;;;5.13;4.50;;;20.80;99.90;;;;;;5097318;28;20465;-71
2022/05/20 08:51:48;;;;;;;6.10;5.10;;;20.70;99.90;;;;;;5097311;28;20548;-70
2022/05/20 08:54:16;;;;;;;6.93;5.40;;;20.80;99.90;;;;;;5096445;28;20445;-70
2022/05/20 08:56:44;;;;;;;4.50;4.10;;;20.70;99.90;;;;;;5094804;28;20922;-71
2022/05/20 08:59:14;;;;;;;4.27;3.87;;;20.80;99.90;;;;;;5095035;28;20514;-70
2022/05/20 09:01:42;;;;;;;4.70;4.30;;;20.90;99.90;;;;;;5097293;28;20893;-70
2022/05/20 09:04:11;;;;;;;5.30;4.67;;;20.90;99.90;;;;;;5098094;28;20460;-70
2022/05/20 09:06:40;;;;;;;4.50;4.10;;;20.90;99.90;;;;;;5097850;28;20910;-71
2022/05/20 09:09:11;;;;;;;4.10;3.73;;;21.00;99.90;;;;;;5096090;28;20495;-70
2022/05/20 09:11:41;;;;;;;3.73;3.43;;;21.10;99.90;;;;;;5095930;28;20453;-71
2022/05/20 09:17:13;;;;;;;5.53;4.20;;;21.40;99.90;;;;;;5055365;28;20469;-71
2022/05/20 09:19:55;;;;;;;4.37;3.83;;;21.40;99.90;;;;;;5088042;28;20886;-70
2022/05/20 09:22:26;;;;;;;4.57;4.17;;;21.40;99.90;;;;;;5096839;28;20438;-70
2022/05/20 09:24:53;;;;;;;4.03;3.73;;;21.40;99.90;;;;;;5097508;28;20882;-70
2022/05/20 09:27:28;;;;;;;4.30;3.90;;;21.50;99.90;;;;;;5097198;28;20457;-71
2022/05/20 09:29:59;;;;;;;4.67;4.13;;;21.50;99.90;;;;;;5098650;28;20462;-71
2022/05/20 09:32:30;;;;;;;3.50;3.20;;;21.50;99.90;;;;;;5098433;28;20449;-70
2022/05/20 09:35:01;;;;;;;3.30;3.00;;;21.60;99.90;;;;;;5096798;28;20781;-71
2022/05/20 09:37:29;;;;;;;4.20;3.90;;;21.60;99.90;;;;;;5096981;28;20545;-71
2022/05/20 09:39:56;;;;;;;4.70;3.57;;;21.80;99.90;;;;;;5097074;28;20544;-71
2022/05/20 09:42:26;;;;;;;4.73;3.90;;;21.70;99.90;;;;;;5096410;28;20515;-71
2022/05/20 09:44:56;;;;;;;3.67;3.30;;;21.70;99.90;;;;;;5096704;28;20463;-71
2022/05/20 09:47:31;;;;;;;6.00;3.93;;;21.70;99.90;;;;;;5096960;28;20456;-70
2022/05/20 09:49:59;;;;;;;4.80;3.83;;;21.70;99.90;;;;;;5096831;28;20433;-70
2022/05/20 09:52:41;;;;;;;6.00;3.30;;;21.70;99.90;;;;;;5100453;28;20457;-70
2022/05/20 09:55:15;;;;;;;4.40;3.33;;;21.70;99.90;;;;;;5101587;28;20855;-70
2022/05/20 09:57:46;;;;;;;3.40;3.10;;;21.90;99.90;;;;;;5100484;28;20473;-70
2022/05/20 10:00:19;;;;;;;4.67;2.80;;;22.00;99.90;;;;;;5099915;28;20437;-71
2022/05/20 10:02:54;;;;;;;3.30;3.10;;;22.00;99.90;;;;;;5098395;28;20499;-71
2022/05/20 10:05:27;;;;;;;4.47;2.93;;;22.20;99.90;;;;;;5098899;28;20887;-71
2022/05/20 10:08:07;;;;;;;5.53;3.27;;;22.30;99.90;;;;;;5098728;28;20484;-72
2022/05/20 10:10:47;;;;;;;4.13;2.97;;;22.30;99.90;;;;;;5100607;28;20473;-71
2022/05/20 10:13:30;;;;;;;3.67;2.70;;;22.20;99.90;;;;;;5099667;28;20438;-71
2022/05/20 10:16:09;;;;;;;7.10;3.10;;;22.10;99.90;;;;;;5099784;28;20440;-70
2022/05/20 10:18:42;;;;;;;7.47;4.50;;;22.10;99.90;;;;;;5099601;28;20461;-70
2022/05/20 10:21:16;;;;;;;5.53;3.20;;;22.20;99.90;;;;;;5098357;28;20445;-71
2022/05/20 10:23:52;;;;;;;3.87;3.47;;;22.20;99.90;;;;;;5099652;28;20472;-71
2022/05/20 10:26:30;;;;;;;3.67;2.87;;;22.30;99.90;;;;;;5098196;28;20592;-70
2022/05/20 10:34:34;;;;;;;8.60;2.80;;;22.30;99.90;;;;;;5087719;28;20751;-71
2022/05/20 10:37:05;;;;;;;2.77;2.20;;;22.40;99.90;;;;;;5098217;28;20511;-70
2022/05/20 10:39:56;;;;;;;4.67;2.83;;;22.60;99.90;;;;;;5098468;28;20820;-71
2022/05/20 10:42:45;;;;;;;8.37;2.80;;;22.60;99.90;;;;;;5097643;28;20437;-71
2022/05/20 10:48:36;;;;;;;2.83;2.63;;;22.70;99.90;;;;;;5098425;28;20475;-70
2022/05/20 10:51:42;;;;;;;2.93;2.33;;;22.70;99.90;;;;;;5098214;28;20460;-71
2022/05/20 10:54:37;;;;;;;3.70;2.80;;;22.80;99.90;;;;;;5091975;28;20535;-71
2022/05/20 10:57:20;;;;;;;2.70;2.37;;;22.80;99.90;;;;;;5096888;28;20518;-70
2022/05/20 11:00:05;;;;;;;6.33;2.80;;;22.80;99.90;;;;;;5097168;28;20441;-70
2022/05/20 11:03:13;;;;;;;4.53;2.30;;;23.00;99.90;;;;;;5098770;28;20715;-72
2022/05/20 11:05:55;;;;;;;2.57;2.33;;;23.00;99.90;;;;;;5098291;28;20437;-71
2022/05/20 11:08:32;;;;;;;3.20;2.60;;;23.00;99.90;;;;;;5100385;28;20541;-71
2022/05/20 11:11:19;;;;;;;3.20;2.53;;;23.00;99.90;;;;;;5098879;28;20453;-72
2022/05/20 11:14:00;;;;;;;2.53;2.33;;;23.20;99.90;;;;;;5096223;28;20453;-71
2022/05/20 11:16:41;;;;;;;3.63;2.13;;;23.50;99.90;;;;;;5096487;28;20894;-71
2022/05/20 11:19:23;;;;;;;9.33;2.67;;;24.00;99.90;;;;;;5096152;28;20944;-71
2022/05/20 11:22:03;;;;;;;3.13;2.37;;;24.50;99.90;;;;;;5096168;28;20782;-71
2022/05/20 11:25:10;;;;;;;2.23;2.03;;;25.10;99.90;;;;;;5096143;28;20920;-71
2022/05/20 11:28:18;;;;;;;2.50;2.00;;;25.60;99.90;;;;;;5066546;28;20457;-71
2022/05/20 11:31:01;;;;;;;5.10;2.03;;;26.10;98.00;;;;;;5080967;28;20468;-70
2022/05/20 11:33:46;;;;;;;3.00;2.40;;;26.60;97.20;;;;;;5096668;28;20438;-71
2022/05/20 11:36:34;;;;;;;3.97;2.33;;;27.10;95.60;;;;;;5098302;28;20826;-71
2022/05/20 11:39:26;;;;;;;4.00;1.90;;;27.50;93.50;;;;;;5098910;28;20473;-71
2022/05/20 11:42:10;;;;;;;3.30;2.13;;;27.80;87.40;;;;;;5099998;28;20498;-71
2022/05/20 11:44:48;;;;;;;3.17;2.10;;;27.60;87.00;;;;;;5097890;28;20484;-70
2022/05/20 11:48:04;;;;;;;4.23;3.03;;;27.50;90.00;;;;;;5099406;28;20898;-70
2022/05/20 11:51:04;;;;;;;7.53;2.43;;;27.60;90.70;;;;;;5035850;28;20502;-70
2022/05/20 11:53:42;;;;;;;3.77;2.33;;;28.20;90.40;;;;;;5097583;28;20560;-70
2022/05/20 11:56:18;;;;;;;2.20;2.00;;;28.50;81.90;;;;;;5097829;28;20437;-71
2022/05/20 11:58:52;;;;;;;3.10;2.07;;;28.70;74.70;;;;;;5098059;28;20478;-70
2022/05/20 12:01:19;;;;;;;2.30;2.10;;;28.60;77.90;;;;;;5098681;28;20495;-71
2022/05/20 12:06:31;;;;;;;2.87;2.60;;;28.90;78.80;;;;;;5096294;28;20786;-71
2022/05/20 12:09:01;;;;;;;4.80;2.70;;;29.20;77.40;;;;;;5098383;28;20469;-71
2022/05/20 12:11:30;;;;;;;3.20;2.10;;;29.50;77.00;;;;;;5098732;28;20453;-71
2022/05/20 12:14:05;;;;;;;2.90;2.03;;;29.70;78.10;;;;;;5097473;28;20549;-71
2022/05/20 12:16:33;;;;;;;2.90;2.37;;;30.10;72.40;;;;;;5097973;28;20803;-71
2022/05/20 12:24:39;;;;;;;4.40;2.70;;;29.20;71.10;;;;;;5097967;28;20421;-71
2022/05/20 12:27:35;;;;;;;2.30;2.10;;;29.30;74.50;;;;;;5097734;28;20438;-71
2022/05/20 12:30:06;;;;;;;2.87;2.53;;;29.90;75.20;;;;;;5097172;28;20446;-70
2022/05/20 12:32:45;;;;;;;5.10;2.43;;;30.50;69.30;;;;;;5097447;28;20446;-71
2022/05/20 12:35:16;;;;;;;2.80;2.00;;;30.60;66.90;;;;;;5095717;28;20805;-71
2022/05/20 12:38:23;;;;;;;5.33;2.27;;;31.00;61.10;;;;;;5096750;28;20469;-71
2022/05/20 12:41:03;;;;;;;5.07;2.33;;;31.40;58.30;;;;;;5098197;28;20442;-71
2022/05/20 12:43:49;;;;;;;4.03;2.80;;;31.20;58.00;;;;;;5097658;28;20441;-72
2022/05/20 12:46:23;;;;;;;3.43;2.07;;;31.50;57.80;;;;;;5096544;28;20452;-71
2022/05/20 12:48:54;;;;;;;10.90;2.33;;;31.70;54.20;;;;;;5097696;28;20430;-71
2022/05/20 12:51:21;;;;;;;3.90;1.83;;;31.20;54.00;;;;;;5095838;28;20835;-71
2022/05/20 12:53:48;;;;;;;3.10;1.60;;;31.10;52.30;;;;;;5095659;28;20993;-71
2022/05/20 12:56:31;;;;;;;2.47;1.63;;;31.10;52.20;;;;;;5095632;28;20464;-71
2022/05/20 12:59:20;;;;;;;3.20;1.80;;;31.20;49.50;;;;;;5094287;28;20567;-71
2022/05/20 13:01:57;;;;;;;3.50;1.67;;;31.00;48.90;;;;;;5094409;28;20445;-72
2022/05/20 13:04:26;;;;;;;2.13;1.93;;;30.60;50.80;;;;;;5094422;28;20498;-72
2022/05/20 13:06:53;;;;;;;9.13;2.00;;;30.70;51.40;;;;;;5094423;28;20535;-71
2022/05/20 13:09:27;;;;;;;3.63;1.93;;;30.80;51.60;;;;;;5094953;28;20434;-72
2022/05/20 13:12:03;;;;;;;2.10;1.90;;;30.60;51.90;;;;;;5093678;28;20448;-72
2022/05/20 13:14:30;;;;;;;3.03;1.60;;;30.50;51.60;;;;;;5093720;28;20766;-72
2022/05/20 13:17:01;;;;;;;2.90;1.63;;;30.50;51.10;;;;;;5093273;28;20445;-72
2022/05/20 13:19:32;;;;;;;4.23;1.90;;;30.60;48.50;;;;;;5093468;28;20465;-72
2022/05/20 13:22:04;;;;;;;2.40;2.00;;;30.20;48.30;;;;;;5093599;28;20437;-72
2022/05/20 13:24:35;;;;;;;3.63;1.87;;;29.50;49.60;;;;;;5093111;28;20783;-72
2022/05/20 13:27:10;;;;;;;2.43;2.20;;;29.40;50.50;;;;;;5094963;28;20563;-71
2022/05/20 13:29:40;;;;;;;2.47;1.87;;;29.40;51.50;;;;;;5097984;28;20839;-72
2022/05/20 13:32:16;;;;;;;1.90;1.70;;;29.30;51.30;;;;;;5097237;28;20465;-73
2022/05/20 13:34:44;;;;;;;2.77;1.70;;;29.30;51.00;;;;;;5097565;28;20454;-72
2022/05/20 13:37:13;;;;;;;1.60;1.50;;;29.50;51.70;;;;;;5097315;28;20457;-72
2022/05/20 13:39:41;;;;;;;2.67;1.73;;;29.70;49.90;;;;;;5097231;28;20512;-73
2022/05/20 13:42:12;;;;;;;1.50;1.40;;;29.70;47.00;;;;;;5097150;28;20544;-73
2022/05/20 13:44:41;;;;;;;2.47;1.47;;;29.20;46.80;;;;;;5097001;28;20475;-72